Terminal Aerodrome Forecast
Issued by NWS

Home | Current Version | Previous Version | Text Only | Print | Product List | Glossary On
Versions: 1 2 3 4 5 6 7 8 9 10 11 12 13 14 15 16 17
000
FTUS45 KFGZ 270800 AAA
TAFPRC
TAF AMD
KPRC 270805Z 2708/2806 VRB06KT P6SM VCTS SCT050CB BKN080
      TEMPO 2708/2712 VRB10G20KT 4SM TSRA OVC040CB
     FM271900 27007KT P6SM SCT070
     FM280200 20006KT P6SM SCT070=

USA.gov is the U.S. government's official web portal to all federal, state and local government web resources and services.